createdAt,value
2023-03-15T00:00:36.201Z,100418.97
2023-03-15T00:03:04.436Z,100424.50
2023-03-15T00:05:31.924Z,100447.06
2023-03-15T00:07:59.922Z,100452.78
2023-03-15T00:10:26.164Z,100471.25
2023-03-15T00:12:53.417Z,100468.53
2023-03-15T00:18:11.930Z,100478.63
2023-03-15T00:20:39.086Z,100494.19
2023-03-15T00:23:14.186Z,100491.63
2023-03-15T00:25:40.569Z,100484.16
2023-03-15T00:28:06.821Z,100486.97
2023-03-15T00:30:33.065Z,100471.69
2023-03-15T00:32:59.334Z,100460.31
2023-03-15T00:35:25.722Z,100467.66
2023-03-15T00:37:56.084Z,100469.13
2023-03-15T00:40:23.271Z,100457.25
2023-03-15T00:42:52.101Z,100453.03
2023-03-15T00:45:19.620Z,100453.53
2023-03-15T00:47:48.725Z,100455.31
2023-03-15T00:50:15.156Z,100465.88
2023-03-15T00:52:43.086Z,100467.81
2023-03-15T00:55:13.385Z,100476.94
2023-03-15T00:57:40.654Z,100472.22
2023-03-15T01:00:09.715Z,100480.19
2023-03-15T01:02:37.533Z,100485.72
2023-03-15T01:05:06.380Z,100478.25
2023-03-15T01:07:35.620Z,100476.28
2023-03-15T01:10:02.539Z,100486.22
2023-03-15T01:12:29.444Z,100481.50
2023-03-15T01:14:55.932Z,100482.28
2023-03-15T01:17:25.594Z,100483.09
2023-03-15T01:19:53.101Z,100483.94
2023-03-15T01:22:20.233Z,100480.03
2023-03-15T01:24:50.786Z,100476.13
2023-03-15T01:27:19.757Z,100475.78
2023-03-15T01:29:46.095Z,100472.38
2023-03-15T01:32:12.394Z,100471.25
2023-03-15T01:34:38.790Z,100474.50
2023-03-15T01:37:07.463Z,100484.44
2023-03-15T01:39:34.032Z,100479.06
2023-03-15T01:42:00.352Z,100473.22
2023-03-15T01:44:49.308Z,100470.09
2023-03-15T01:47:17.467Z,100473.84
2023-03-15T01:49:49.230Z,100480.69
2023-03-15T01:52:17.406Z,100475.31
2023-03-15T01:54:49.585Z,100474.16
2023-03-15T01:57:22.734Z,100477.44
2023-03-15T01:59:56.614Z,100480.69
2023-03-15T02:02:24.564Z,100474.03
2023-03-15T02:05:12.493Z,100480.50
2023-03-15T02:07:51.748Z,100480.19
2023-03-15T02:10:35.559Z,100481.81
2023-03-15T02:13:02.476Z,100485.41
2023-03-15T02:15:29.014Z,100483.09
2023-03-15T02:17:55.336Z,100493.38
2023-03-15T02:20:27.631Z,100497.78
2023-03-15T02:23:00.198Z,100495.84
2023-03-15T02:25:46.426Z,100510.16
2023-03-15T02:28:14.617Z,100507.84
2023-03-15T02:30:41.116Z,100514.69
2023-03-15T02:33:11.399Z,100514.38
2023-03-15T02:35:37.730Z,100511.28
2023-03-15T02:38:05.017Z,100512.91
2023-03-15T02:40:32.484Z,100516.50
2023-03-15T02:43:05.789Z,100525.59
2023-03-15T02:45:38.006Z,100524.47
2023-03-15T02:48:05.905Z,100522.03
2023-03-15T02:50:32.534Z,100520.88
2023-03-15T02:53:06.674Z,100529.19
2023-03-15T02:55:33.479Z,100534.38
2023-03-15T02:58:06.950Z,100534.88
2023-03-15T03:00:34.997Z,100533.91
2023-03-15T03:03:02.450Z,100538.13
2023-03-15T03:05:28.780Z,100536.50
2023-03-15T03:07:55.092Z,100535.38
2023-03-15T03:10:21.733Z,100554.44
2023-03-15T03:12:54.736Z,100542.56
2023-03-15T03:15:21.520Z,100548.91
2023-03-15T03:17:51.319Z,100553.28
2023-03-15T03:20:20.698Z,100559.63
2023-03-15T03:22:47.045Z,100553.75
2023-03-15T03:25:13.515Z,100564.53
2023-03-15T03:27:40.664Z,100568.25
2023-03-15T03:30:08.385Z,100583.59
2023-03-15T03:32:35.449Z,100579.19
2023-03-15T03:35:03.487Z,100581.16
2023-03-15T03:37:30.808Z,100587.81
2023-03-15T03:39:57.811Z,100595.31
2023-03-15T03:42:24.055Z,100595.31
2023-03-15T03:44:50.742Z,100600.03
2023-03-15T03:47:17.038Z,100603.13
2023-03-15T03:49:43.350Z,100604.28
2023-03-15T03:52:09.659Z,100621.69
2023-03-15T03:54:35.937Z,100618.13
2023-03-15T03:57:02.253Z,100628.06
2023-03-15T03:59:28.758Z,100628.06
2023-03-15T04:01:55.266Z,100636.03
2023-03-15T04:04:21.700Z,100637.66
2023-03-15T04:06:48.057Z,100634.06
2023-03-15T04:09:15.149Z,100638.78
2023-03-15T04:11:42.637Z,100642.72
2023-03-15T04:14:13.063Z,100647.78
2023-03-15T04:16:43.101Z,100656.72
2023-03-15T04:19:09.417Z,100655.38
2023-03-15T04:21:35.759Z,100659.31
2023-03-15T04:24:02.238Z,100657.69
2023-03-15T04:26:29.035Z,100662.06
2023-03-15T04:28:59.565Z,100664.50
2023-03-15T04:31:29.611Z,100666.97
2023-03-15T04:33:56.153Z,100664.19
2023-03-15T04:36:22.909Z,100681.81
2023-03-15T04:38:50.052Z,100662.41
2023-03-15T04:41:16.926Z,100666.47
2023-03-15T04:43:43.856Z,100672.03
2023-03-15T04:46:10.336Z,100672.84
2023-03-15T04:48:37.312Z,100681.66
2023-03-15T04:51:04.075Z,100678.06
2023-03-15T04:53:30.750Z,100694.34
2023-03-15T04:55:57.224Z,100701.19
2023-03-15T04:58:23.484Z,100705.59
2023-03-15T05:00:49.833Z,100705.59
2023-03-15T05:03:16.347Z,100707.69
2023-03-15T05:05:45.324Z,100717.63
2023-03-15T05:08:11.676Z,100714.56
2023-03-15T05:10:38.895Z,100709.03
2023-03-15T05:13:05.167Z,100710.66
2023-03-15T05:15:31.804Z,100714.22
2023-03-15T05:17:58.294Z,100711.47
2023-03-15T05:20:25.201Z,100712.28
2023-03-15T05:22:53.423Z,100716.66
2023-03-15T05:25:19.671Z,100715.84
2023-03-15T05:27:46.636Z,100719.78
2023-03-15T05:30:15.399Z,100727.59
2023-03-15T05:32:44.670Z,100735.56
2023-03-15T05:35:11.615Z,100742.25
2023-03-15T05:37:38.258Z,100745.34
2023-03-15T05:40:08.089Z,100747.63
2023-03-15T05:42:35.847Z,100750.72
2023-03-15T05:45:02.212Z,100752.97
2023-03-15T05:47:28.731Z,100761.63
2023-03-15T05:49:54.986Z,100763.91
2023-03-15T05:52:21.269Z,100774.16
2023-03-15T05:54:47.527Z,100777.25
2023-03-15T05:57:14.030Z,100786.38
2023-03-15T05:59:40.336Z,100784.75
2023-03-15T06:02:08.117Z,100793.84
2023-03-15T06:04:34.713Z,100806.06
2023-03-15T06:07:01.183Z,100802.50
2023-03-15T06:09:30.481Z,100817.47
2023-03-15T06:11:57.449Z,100819.91
2023-03-15T06:14:23.786Z,100812.44
2023-03-15T06:16:50.475Z,100822.34
2023-03-15T06:19:16.912Z,100823.19
2023-03-15T06:21:44.471Z,100823.19
2023-03-15T06:24:10.741Z,100817.63
2023-03-15T06:26:37.007Z,100832.81
2023-03-15T06:29:03.263Z,100831.66
2023-03-15T06:31:31.745Z,100844.38
2023-03-15T06:34:01.181Z,100850.72
2023-03-15T06:36:29.851Z,100851.22
2023-03-15T06:38:56.199Z,100855.31
2023-03-15T06:41:22.541Z,100847.50
2023-03-15T06:43:49.294Z,100851.56
2023-03-15T06:46:16.677Z,100865.13
2023-03-15T06:48:44.332Z,100866.75
2023-03-15T06:51:10.720Z,100867.75
2023-03-15T06:53:38.197Z,100867.91
2023-03-15T06:56:04.801Z,100869.56
2023-03-15T06:58:36.269Z,100878.34
2023-03-15T07:01:03.144Z,100886.66
2023-03-15T07:03:37.529Z,100892.69
2023-03-15T07:06:07.391Z,100886.84
2023-03-15T07:08:34.077Z,100894.34
2023-03-15T07:11:00.650Z,100883.25
2023-03-15T07:13:26.949Z,100895.16
2023-03-15T07:15:56.877Z,100892.38
2023-03-15T07:18:23.250Z,100897.41
2023-03-15T07:20:58.918Z,100899.06
2023-03-15T07:23:25.234Z,100902.66
2023-03-15T07:25:55.522Z,100907.88
2023-03-15T07:28:26.619Z,100905.56
2023-03-15T07:30:57.058Z,100917.19
2023-03-15T07:33:24.342Z,100920.75
2023-03-15T07:35:51.566Z,100930.09
2023-03-15T07:38:22.037Z,100925.38
2023-03-15T07:40:49.627Z,100933.88
2023-03-15T07:43:16.593Z,100943.47
2023-03-15T07:45:49.393Z,100932.56
2023-03-15T07:48:15.878Z,100941.56
2023-03-15T07:50:49.517Z,100942.88
2023-03-15T07:53:17.898Z,100945.81
2023-03-15T07:55:47.985Z,100957.06
2023-03-15T08:00:56.923Z,100957.28
2023-03-15T08:03:25.308Z,100960.91
2023-03-15T08:05:51.634Z,100957.81
2023-03-15T08:08:20.754Z,100962.25
2023-03-15T08:10:47.124Z,100961.91
2023-03-15T08:13:13.625Z,100963.06
2023-03-15T08:15:42.304Z,100975.31
2023-03-15T08:18:08.734Z,100983.94
2023-03-15T08:20:35.150Z,100992.13
2023-03-15T08:23:02.223Z,100997.84
2023-03-15T08:25:28.945Z,101003.06
2023-03-15T08:27:55.613Z,101007.50
2023-03-15T08:30:22.513Z,101014.66
2023-03-15T08:32:50.453Z,101026.25
2023-03-15T08:35:17.331Z,101031.81
2023-03-15T08:37:48.161Z,101044.22
2023-03-15T08:40:18.960Z,101040.78
2023-03-15T08:42:45.870Z,101040.31
2023-03-15T08:45:12.906Z,101041.31
2023-03-15T08:47:39.307Z,101043.56
2023-03-15T08:50:09.133Z,101052.25
2023-03-15T08:52:35.637Z,101050.94
2023-03-15T08:55:03.001Z,101052.94
2023-03-15T08:57:29.677Z,101069.25
2023-03-15T08:59:56.101Z,101068.09
2023-03-15T09:02:23.451Z,101072.16
2023-03-15T09:04:53.805Z,101085.38
2023-03-15T09:07:21.658Z,101078.34
2023-03-15T09:09:48.620Z,101084.69
2023-03-15T09:12:19.025Z,101087.28
2023-03-15T09:14:45.265Z,101090.53
2023-03-15T09:17:12.391Z,101098.53
2023-03-15T09:19:40.903Z,101095.75
2023-03-15T09:22:16.296Z,101093.78
2023-03-15T09:24:50.475Z,101094.31
2023-03-15T09:27:18.757Z,101085.63
2023-03-15T09:29:45.264Z,101090.03
2023-03-15T09:32:11.971Z,101092.00
2023-03-15T09:34:41.831Z,101095.94
2023-03-15T09:37:14.986Z,101091.19
2023-03-15T09:39:41.493Z,101095.28
2023-03-15T09:42:14.663Z,101103.75
2023-03-15T09:44:46.307Z,101095.72
2023-03-15T09:47:20.601Z,101101.09
2023-03-15T09:49:53.971Z,101097.78
2023-03-15T09:52:32.350Z,101108.72
2023-03-15T09:55:21.782Z,101116.88
2023-03-15T09:57:57.502Z,101119.38
2023-03-15T10:00:46.466Z,101120.53
2023-03-15T10:03:23.138Z,101118.06
2023-03-15T10:05:55.537Z,101112.00
2023-03-15T10:08:23.502Z,101114.28
2023-03-15T10:10:57.065Z,101116.59
2023-03-15T10:13:46.669Z,101114.97
2023-03-15T10:16:21.769Z,101117.25
2023-03-15T10:19:04.682Z,101120.53
2023-03-15T10:21:38.802Z,101118.72
2023-03-15T10:24:09.418Z,101123.78
2023-03-15T10:26:37.422Z,101122.44
2023-03-15T10:29:09.364Z,101119.94
2023-03-15T10:31:44.536Z,101117.94
2023-03-15T10:34:13.309Z,101121.03
2023-03-15T10:36:50.898Z,101130.16
2023-03-15T10:39:17.451Z,101120.44
2023-03-15T10:41:45.316Z,101121.75
2023-03-15T10:44:13.698Z,101117.00
2023-03-15T10:46:40.151Z,101128.94
2023-03-15T10:49:10.605Z,101125.00
2023-03-15T10:51:43.203Z,101125.81
2023-03-15T10:54:14.996Z,101132.19
2023-03-15T10:56:46.925Z,101133.50
2023-03-15T10:59:18.654Z,101130.38
2023-03-15T11:01:54.636Z,101132.84
2023-03-15T11:04:27.628Z,101141.66
2023-03-15T11:07:02.956Z,101136.91
2023-03-15T11:09:39.708Z,101145.25
2023-03-15T11:12:07.310Z,101146.44
2023-03-15T11:14:35.209Z,101140.84
2023-03-15T11:17:03.567Z,101145.63
2023-03-15T11:19:31.593Z,101153.47
2023-03-15T11:21:59.801Z,101145.47
2023-03-15T11:24:27.788Z,101150.22
2023-03-15T11:26:56.019Z,101152.19
2023-03-15T11:29:32.714Z,101156.59
2023-03-15T11:32:00.811Z,101151.53
2023-03-15T11:34:39.136Z,101157.09
2023-03-15T11:37:12.131Z,101161.16
2023-03-15T11:39:45.581Z,101158.84
2023-03-15T11:42:15.992Z,101156.22
2023-03-15T11:44:47.580Z,101153.56
2023-03-15T11:47:32.576Z,101156.50
2023-03-15T11:49:59.332Z,101160.72
2023-03-15T11:52:27.235Z,101166.91
2023-03-15T11:55:00.931Z,101174.72
2023-03-15T11:57:33.435Z,101167.81
2023-03-15T12:00:19.852Z,101163.50
2023-03-15T12:02:51.044Z,101156.31
2023-03-15T12:05:36.106Z,101163.03
2023-03-15T12:08:20.411Z,101159.44
2023-03-15T12:10:47.871Z,101166.50
2023-03-15T12:13:18.964Z,101176.50
2023-03-15T12:15:47.660Z,101160.94
2023-03-15T12:18:16.484Z,101165.34
2023-03-15T12:20:48.507Z,101164.22
2023-03-15T12:23:21.467Z,101167.47
2023-03-15T12:25:55.583Z,101156.44
2023-03-15T12:28:45.321Z,101162.63
2023-03-15T12:31:16.982Z,101155.91
2023-03-15T12:33:45.523Z,101153.72
2023-03-15T12:36:18.945Z,101167.44
2023-03-15T12:38:53.628Z,101154.00
2023-03-15T12:41:35.341Z,101160.53
2023-03-15T12:44:20.292Z,101156.22
2023-03-15T12:46:46.857Z,101154.38
2023-03-15T12:49:23.771Z,101154.84
2023-03-15T12:52:01.361Z,101158.59
2023-03-15T12:54:50.046Z,101150.69
2023-03-15T12:57:39.718Z,101155.56
2023-03-15T13:00:15.528Z,101153.41
2023-03-15T13:02:46.753Z,101152.38
2023-03-15T13:05:16.590Z,101144.16
2023-03-15T13:07:52.612Z,101143.94
2023-03-15T13:10:22.037Z,101143.03
2023-03-15T13:13:06.728Z,101150.81
2023-03-15T13:15:43.991Z,101148.44
2023-03-15T13:18:24.133Z,101150.28
2023-03-15T13:20:50.343Z,101148.06
2023-03-15T13:23:18.616Z,101148.19
2023-03-15T13:25:52.516Z,101162.16
2023-03-15T13:28:23.510Z,101158.56
2023-03-15T13:30:52.457Z,101155.31
2023-03-15T13:33:30.060Z,101158.91
2023-03-15T13:35:58.601Z,101159.72
2023-03-15T13:38:29.609Z,101156.94
2023-03-15T13:40:56.797Z,101161.34
2023-03-15T13:43:33.185Z,101158.56
2023-03-15T13:45:59.942Z,101151.47
2023-03-15T13:48:27.022Z,101155.53
2023-03-15T13:50:55.087Z,101159.72
2023-03-15T13:53:35.646Z,101157.50
2023-03-15T13:56:10.169Z,101154.53
2023-03-15T13:58:38.518Z,101162.66
2023-03-15T14:01:07.106Z,101151.59
2023-03-15T14:03:33.652Z,101153.34
2023-03-15T14:06:00.052Z,101150.22
2023-03-15T14:08:31.430Z,101158.69
2023-03-15T14:10:58.979Z,101160.44
2023-03-15T14:13:26.678Z,101168.81
2023-03-15T14:15:58.057Z,101174.06
2023-03-15T14:18:44.603Z,101167.31
2023-03-15T14:21:14.904Z,101168.13
2023-03-15T14:23:45.713Z,101166.59
2023-03-15T14:26:19.719Z,101169.88
2023-03-15T14:28:53.265Z,101171.50
2023-03-15T14:31:23.253Z,101174.28
2023-03-15T14:34:00.209Z,101180.69
2023-03-15T14:36:31.673Z,101177.09
2023-03-15T14:38:58.481Z,101177.44
2023-03-15T14:41:28.228Z,101182.56
2023-03-15T14:43:54.812Z,101180.94
2023-03-15T14:46:21.742Z,101188.84
2023-03-15T14:48:49.336Z,101186.75
2023-03-15T14:51:17.075Z,101193.88
2023-03-15T14:53:43.698Z,101194.19
2023-03-15T14:56:11.140Z,101184.56
2023-03-15T14:58:37.497Z,101194.44
2023-03-15T15:01:06.601Z,101195.16
2023-03-15T15:03:35.586Z,101190.25
2023-03-15T15:06:02.585Z,101200.94
2023-03-15T15:08:31.042Z,101200.47
2023-03-15T15:10:58.617Z,101205.63
2023-03-15T15:13:26.524Z,101203.97
2023-03-15T15:15:56.892Z,101208.72
2023-03-15T15:18:24.698Z,101212.34
2023-03-15T15:20:54.232Z,101207.91
2023-03-15T15:23:22.215Z,101210.38
2023-03-15T15:25:50.674Z,101219.91
2023-03-15T15:28:33.277Z,101215.97
2023-03-15T15:31:00.754Z,101210.25
2023-03-15T15:33:27.152Z,101208.16
2023-03-15T15:35:54.572Z,101212.47
2023-03-15T15:38:33.346Z,101208.72
2023-03-15T15:41:01.010Z,101206.50
2023-03-15T15:43:27.519Z,101206.72
2023-03-15T15:45:54.306Z,101205.66
2023-03-15T15:48:20.681Z,101200.31
2023-03-15T15:50:47.475Z,101202.16
2023-03-15T15:53:17.024Z,101206.78
2023-03-15T15:55:44.242Z,101201.41
2023-03-15T15:58:12.447Z,101201.78
2023-03-15T16:00:38.749Z,101209.34
2023-03-15T16:03:15.115Z,101214.44
2023-03-15T16:05:43.950Z,101208.50
2023-03-15T16:08:20.063Z,101202.91
2023-03-15T16:10:46.347Z,101206.53
2023-03-15T16:13:13.678Z,101204.88
2023-03-15T16:15:42.462Z,101208.50
2023-03-15T16:18:12.470Z,101203.25
2023-03-15T16:20:40.406Z,101207.22
2023-03-15T16:23:07.086Z,101221.03
2023-03-15T16:25:35.686Z,101218.94
2023-03-15T16:28:03.317Z,101216.84
2023-03-15T16:30:30.972Z,101217.19
2023-03-15T16:32:57.454Z,101221.47
2023-03-15T16:35:35.084Z,101213.44
2023-03-15T16:38:02.180Z,101220.19
2023-03-15T16:40:30.797Z,101221.69
2023-03-15T16:42:57.487Z,101214.78
2023-03-15T16:45:24.580Z,101217.91
2023-03-15T16:47:51.251Z,101225.31
2023-03-15T16:50:18.344Z,101226.47
2023-03-15T16:52:46.097Z,101231.09
2023-03-15T16:55:18.018Z,101230.66
2023-03-15T16:57:44.348Z,101237.69
2023-03-15T17:00:17.702Z,101233.28
2023-03-15T17:02:47.999Z,101236.75
2023-03-15T17:05:19.881Z,101236.28
2023-03-15T17:07:50.302Z,101231.38
2023-03-15T17:10:25.835Z,101232.88
2023-03-15T17:12:53.018Z,101237.16
2023-03-15T17:15:21.983Z,101239.03
2023-03-15T17:17:49.813Z,101240.03
2023-03-15T17:20:21.829Z,101245.47
2023-03-15T17:22:51.786Z,101253.22
2023-03-15T17:25:19.211Z,101248.97
2023-03-15T17:27:47.126Z,101248.34
2023-03-15T17:30:33.772Z,101245.75
2023-03-15T17:33:00.999Z,101248.59
2023-03-15T17:35:31.699Z,101253.53
2023-03-15T17:37:57.970Z,101252.91
2023-03-15T17:40:26.610Z,101245.91
2023-03-15T17:42:54.319Z,101252.81
2023-03-15T17:45:28.112Z,101253.00
2023-03-15T17:47:54.456Z,101256.28
2023-03-15T17:50:22.158Z,101264.03
2023-03-15T17:52:51.279Z,101262.56
2023-03-15T17:55:18.692Z,101268.28
2023-03-15T17:57:54.030Z,101263.22
2023-03-15T18:00:22.146Z,101268.16
2023-03-15T18:02:55.661Z,101272.25
2023-03-15T18:05:25.973Z,101271.94
2023-03-15T18:08:00.502Z,101270.47
2023-03-15T18:10:31.511Z,101285.72
2023-03-15T18:12:59.292Z,101281.47
2023-03-15T18:15:25.599Z,101279.69
2023-03-15T18:17:52.104Z,101280.16
2023-03-15T18:20:19.106Z,101278.69
2023-03-15T18:22:45.389Z,101274.13
2023-03-15T18:25:25.438Z,101283.78
2023-03-15T18:27:52.237Z,101275.91
2023-03-15T18:30:20.697Z,101288.00
2023-03-15T18:32:48.432Z,101288.84
2023-03-15T18:35:23.189Z,101288.19
2023-03-15T18:37:49.488Z,101289.47
2023-03-15T18:40:18.548Z,101300.25
2023-03-15T18:42:45.494Z,101298.44
2023-03-15T18:45:18.433Z,101296.97
2023-03-15T18:47:45.332Z,101304.63
2023-03-15T18:50:12.455Z,101303.13
2023-03-15T18:52:39.215Z,101299.69
2023-03-15T18:55:07.705Z,101303.38
2023-03-15T18:57:34.925Z,101305.50
2023-03-15T19:00:01.388Z,101298.94
2023-03-15T19:02:27.846Z,101306.28
2023-03-15T19:04:57.153Z,101311.16
2023-03-15T19:07:24.415Z,101310.97
2023-03-15T19:09:52.557Z,101313.06
2023-03-15T19:12:18.879Z,101315.66
2023-03-15T19:14:46.690Z,101313.03
2023-03-15T19:17:13.525Z,101317.91
2023-03-15T19:19:40.027Z,101303.34
2023-03-15T19:22:06.371Z,101315.06
2023-03-15T19:24:33.294Z,101317.69
2023-03-15T19:26:59.867Z,101318.63
2023-03-15T19:29:27.638Z,101323.16
2023-03-15T19:31:55.288Z,101324.94
2023-03-15T19:34:22.496Z,101322.28
2023-03-15T19:36:48.997Z,101324.06
2023-03-15T19:39:15.278Z,101325.53
2023-03-15T19:41:42.888Z,101341.97
2023-03-15T19:44:09.151Z,101331.50
2023-03-15T19:46:35.462Z,101338.81
2023-03-15T19:49:02.281Z,101334.22
2023-03-15T19:51:28.931Z,101327.66
2023-03-15T19:53:56.425Z,101333.00
2023-03-15T19:56:23.077Z,101339.16
2023-03-15T19:58:49.584Z,101339.81
2023-03-15T20:01:16.372Z,101337.66
2023-03-15T20:03:42.923Z,101340.22
2023-03-15T20:06:12.533Z,101348.88
2023-03-15T20:08:40.317Z,101347.53
2023-03-15T20:11:06.941Z,101352.59
2023-03-15T20:13:37.222Z,101354.84
2023-03-15T20:16:06.559Z,101357.94
2023-03-15T20:18:32.942Z,101362.97
2023-03-15T20:20:59.689Z,101363.59
2023-03-15T20:23:26.130Z,101365.03
2023-03-15T20:25:52.617Z,101363.41
2023-03-15T20:28:19.305Z,101374.78
2023-03-15T20:30:45.591Z,101376.25
2023-03-15T20:33:11.989Z,101367.13
2023-03-15T20:35:38.403Z,101363.81
2023-03-15T20:38:08.061Z,101371.31
2023-03-15T20:40:35.720Z,101372.44
2023-03-15T20:43:02.657Z,101367.19
2023-03-15T20:45:29.066Z,101370.81
2023-03-15T20:47:55.448Z,101373.59
2023-03-15T20:50:22.198Z,101369.16
2023-03-15T20:52:50.962Z,101363.31
2023-03-15T20:55:17.454Z,101368.31
2023-03-15T20:57:43.887Z,101367.50
2023-03-15T21:00:17.146Z,101367.50
2023-03-15T21:02:44.063Z,101358.38
2023-03-15T21:05:10.684Z,101359.19
2023-03-15T21:07:37.065Z,101358.06
2023-03-15T21:10:03.629Z,101358.88
2023-03-15T21:12:30.613Z,101358.59
2023-03-15T21:14:56.949Z,101360.72
2023-03-15T21:17:23.264Z,101358.47
2023-03-15T21:19:49.756Z,101365.66
2023-03-15T21:22:16.074Z,101356.19
2023-03-15T21:24:54.702Z,101355.09
2023-03-15T21:27:22.601Z,101361.13
2023-03-15T21:29:48.821Z,101350.53
2023-03-15T21:32:15.102Z,101362.16
2023-03-15T21:34:41.373Z,101358.25
2023-03-15T21:37:07.623Z,101358.25
2023-03-15T21:39:34.334Z,101357.94
2023-03-15T21:42:00.813Z,101351.56
2023-03-15T21:44:27.143Z,101356.81
2023-03-15T21:46:53.774Z,101347.66
2023-03-15T21:49:20.104Z,101345.19
2023-03-15T21:51:46.392Z,101346.00
2023-03-15T21:54:14.410Z,101354.66
2023-03-15T21:56:41.416Z,101348.28
2023-03-15T21:59:07.742Z,101345.53
2023-03-15T22:01:34.266Z,101347.47
2023-03-15T22:04:00.793Z,101342.75
2023-03-15T22:06:27.430Z,101343.88
2023-03-15T22:08:53.842Z,101333.91
2023-03-15T22:11:22.350Z,101335.03
2023-03-15T22:13:48.770Z,101337.00
2023-03-15T22:16:15.086Z,101348.41
2023-03-15T22:18:41.497Z,101339.56
2023-03-15T22:21:07.795Z,101342.66
2023-03-15T22:23:36.522Z,101351.28
2023-03-15T22:26:02.744Z,101341.63
2023-03-15T22:28:31.127Z,101347.50
2023-03-15T22:30:57.779Z,101340.63
2023-03-15T22:33:24.368Z,101340.44
2023-03-15T22:35:55.512Z,101337.13
2023-03-15T22:38:22.770Z,101333.88
2023-03-15T22:40:49.040Z,101339.69
2023-03-15T22:43:15.421Z,101337.22
2023-03-15T22:45:41.706Z,101335.06
2023-03-15T22:48:10.525Z,101339.28
2023-03-15T22:50:36.807Z,101327.69
2023-03-15T22:53:03.285Z,101329.44
2023-03-15T22:55:30.631Z,101332.81
2023-03-15T22:57:57.149Z,101336.53
2023-03-15T23:00:26.502Z,101325.75
2023-03-15T23:02:53.074Z,101320.00
2023-03-15T23:05:19.833Z,101315.91
2023-03-15T23:07:46.246Z,101313.75
2023-03-15T23:10:13.438Z,101307.19
2023-03-15T23:12:39.738Z,101324.94
2023-03-15T23:15:06.540Z,101313.66
2023-03-15T23:17:32.873Z,101316.22
2023-03-15T23:19:59.267Z,101323.22
2023-03-15T23:22:26.031Z,101323.81
2023-03-15T23:24:52.786Z,101314.47
2023-03-15T23:27:19.073Z,101315.91
2023-03-15T23:29:54.043Z,101319.28
2023-03-15T23:32:21.388Z,101323.78
2023-03-15T23:35:06.613Z,101326.38
2023-03-15T23:37:33.345Z,101329.25
2023-03-15T23:39:59.675Z,101330.97
2023-03-15T23:42:27.470Z,101311.69
2023-03-15T23:44:56.905Z,101321.75
2023-03-15T23:47:23.987Z,101324.28
2023-03-15T23:49:51.116Z,101323.25
2023-03-15T23:52:25.464Z,101324.69
2023-03-15T23:54:53.745Z,101312.59
2023-03-15T23:57:20.780Z,101317.59
2023-03-15T23:59:47.368Z,101322.94
